Time;durP1;ratioP1;P1;durP2;ratioP2;P2;SDS_P1;SDS_P2;PMS_P1;PMS_P2;Temp;Humidity;BMP_temperature;BMP_pressure;BME280_temperature;BME280_humidity;BME280_pressure;Samples;Min_cycle;Max_cycle;Signal;HPM_P1;HPM_P2
2024/01/15 00:00:23;;;;;;;;;;;;;;;19.90;38.79;98837.88;2060977;28;6392;-64
2024/01/15 00:01:24;;;;;;;;;;;;;;;19.91;38.83;98844.34;2063260;28;1861;-64
2024/01/15 00:02:26;;;;;;;;;;;;;;;19.91;38.79;98827.84;2059097;28;2175;-64
2024/01/15 00:03:27;;;;;;;;;;;;;;;19.92;38.89;98835.03;2062128;28;2257;-64
2024/01/15 00:04:28;;;;;;;;;;;;;;;19.92;38.83;98837.19;2060901;28;1912;-63
2024/01/15 00:05:30;;;;;;;;;;;;;;;19.91;38.87;98836.47;2060861;28;2230;-64
2024/01/15 00:06:33;;;;;;;;;;;;;;;19.92;38.93;98825.69;2061032;28;2203;-64
2024/01/15 00:07:35;;;;;;;;;;;;;;;19.93;38.90;98838.63;2063990;28;2057;-64
2024/01/15 00:08:36;;;;;;;;;;;;;;;19.92;38.87;98835.03;2058995;28;1806;-64
2024/01/15 00:09:39;;;;;;;;;;;;;;;19.92;38.83;98832.16;2059589;28;2368;-64
2024/01/15 00:10:41;;;;;;;;;;;;;;;19.92;38.97;98831.44;2064404;28;1805;-64
2024/01/15 00:11:42;;;;;;;;;;;;;;;19.92;38.93;98826.41;2056901;28;1903;-64
2024/01/15 00:12:44;;;;;;;;;;;;;;;19.93;38.88;98819.25;2062563;28;1881;-64
2024/01/15 00:13:45;;;;;;;;;;;;;;;19.93;38.91;98822.13;2061392;28;2255;-64
2024/01/15 00:14:47;;;;;;;;;;;;;;;19.93;38.88;98812.78;2059210;28;1643;-64
2024/01/15 00:15:48;;;;;;;;;;;;;;;19.92;38.79;98805.59;2063492;28;1595;-64
2024/01/15 00:16:51;;;;;;;;;;;;;;;19.93;38.85;98807.03;2060955;28;1686;-64
2024/01/15 00:17:52;;;;;;;;;;;;;;;19.93;38.79;98801.28;2063213;28;1580;-64
2024/01/15 00:18:53;;;;;;;;;;;;;;;19.92;38.81;98806.31;2058150;28;2202;-64
2024/01/15 00:19:55;;;;;;;;;;;;;;;19.91;38.91;98796.25;2059653;28;1612;-64
2024/01/15 00:20:56;;;;;;;;;;;;;;;19.91;38.89;98802.00;2062381;28;2347;-64
2024/01/15 00:21:58;;;;;;;;;;;;;;;19.91;38.86;98804.16;2062140;28;1655;-64
2024/01/15 00:23:00;;;;;;;;;;;;;;;19.91;38.78;98810.63;2062668;28;1761;-64
2024/01/15 00:24:01;;;;;;;;;;;;;;;19.91;38.67;98796.25;2061963;28;1911;-64
2024/01/15 00:25:03;;;;;;;;;;;;;;;19.91;38.40;98802.00;2061679;28;2179;-64
2024/01/15 00:26:04;;;;;;;;;;;;;;;19.91;38.49;98798.41;2061421;28;2267;-64
2024/01/15 00:27:08;;;;;;;;;;;;;;;19.92;38.54;98794.09;2061756;28;2159;-64
2024/01/15 00:28:10;;;;;;;;;;;;;;;19.91;38.72;98784.75;2062871;28;1695;-64
2024/01/15 00:29:11;;;;;;;;;;;;;;;19.91;38.76;98792.66;2058743;28;2242;-64
2024/01/15 00:30:13;;;;;;;;;;;;;;;19.91;38.64;98787.63;2059520;28;6156;-64
2024/01/15 00:31:16;;;;;;;;;;;;;;;19.91;38.79;98786.91;2061789;28;1966;-64
2024/01/15 00:32:17;;;;;;;;;;;;;;;19.91;38.77;98781.88;2059708;28;1948;-64
2024/01/15 00:33:18;;;;;;;;;;;;;;;19.91;38.89;98790.50;2063206;28;1724;-64
2024/01/15 00:34:20;;;;;;;;;;;;;;;19.91;38.83;98790.50;2062942;28;2167;-64
2024/01/15 00:35:22;;;;;;;;;;;;;;;19.91;38.97;98781.16;2057821;28;2041;-64
2024/01/15 00:36:23;;;;;;;;;;;;;;;19.92;38.97;98782.59;2060737;28;1983;-64
2024/01/15 00:37:24;;;;;;;;;;;;;;;19.92;38.86;98776.88;2063449;28;1741;-64
2024/01/15 00:38:26;;;;;;;;;;;;;;;19.92;38.85;98783.34;2063492;28;2180;-64
2024/01/15 00:39:27;;;;;;;;;;;;;;;19.92;39.02;98783.34;2061797;28;2085;-64
2024/01/15 00:40:29;;;;;;;;;;;;;;;19.92;38.93;98780.47;2061833;28;1663;-64
2024/01/15 00:41:30;;;;;;;;;;;;;;;19.93;39.01;98784.03;2060284;28;2046;-64
2024/01/15 00:42:32;;;;;;;;;;;;;;;19.92;38.95;98777.59;2063406;28;1586;-64
2024/01/15 00:43:33;;;;;;;;;;;;;;;19.94;38.98;98774.75;2049924;28;1987;-64
2024/01/15 00:44:35;;;;;;;;;;;;;;;19.93;38.95;98779.06;2053050;28;1993;-64
2024/01/15 00:45:37;;;;;;;;;;;;;;;19.92;39.07;98771.84;2061417;28;1726;-64
2024/01/15 00:46:43;;;;;;;;;;;;;;;19.94;38.95;98780.50;2060773;28;1666;-64
2024/01/15 00:47:44;;;;;;;;;;;;;;;19.93;38.88;98767.56;2062377;28;1584;-64
2024/01/15 00:48:47;;;;;;;;;;;;;;;19.93;38.96;98769.69;2059773;28;2227;-64
2024/01/15 00:49:48;;;;;;;;;;;;;;;19.92;39.08;98771.84;2057804;28;1626;-64
2024/01/15 00:50:51;;;;;;;;;;;;;;;19.93;38.98;98767.56;2060441;28;1598;-64
2024/01/15 00:51:52;;;;;;;;;;;;;;;19.92;39.06;98771.84;2060750;28;1658;-64
2024/01/15 00:52:54;;;;;;;;;;;;;;;19.91;39.03;98770.41;2059830;28;2120;-64
2024/01/15 00:53:55;;;;;;;;;;;;;;;19.91;39.09;98764.66;2061554;28;1690;-64
2024/01/15 00:54:57;;;;;;;;;;;;;;;19.92;39.13;98766.09;2057425;28;2100;-64
2024/01/15 00:55:58;;;;;;;;;;;;;;;19.92;39.11;98766.09;2060918;28;2139;-64
2024/01/15 00:57:00;;;;;;;;;;;;;;;19.91;39.10;98758.91;2058562;28;2200;-64
2024/01/15 00:58:01;;;;;;;;;;;;;;;19.92;39.04;98766.09;2062344;28;1647;-64
2024/01/15 00:59:02;;;;;;;;;;;;;;;19.91;39.02;98764.66;2061986;28;1651;-64
2024/01/15 01:00:04;;;;;;;;;;;;;;;19.92;38.98;98759.63;2061826;28;6344;-64
2024/01/15 01:01:07;;;;;;;;;;;;;;;19.91;38.82;98756.03;2063187;28;2238;-63
2024/01/15 01:02:08;;;;;;;;;;;;;;;19.91;38.76;98753.16;2057587;28;1672;-64
2024/01/15 01:03:10;;;;;;;;;;;;;;;19.91;38.70;98753.16;2062056;28;1734;-64
2024/01/15 01:04:11;;;;;;;;;;;;;;;19.92;38.51;98756.75;2062429;28;1983;-64
2024/01/15 01:05:13;;;;;;;;;;;;;;;19.91;38.67;98758.91;2066548;28;1661;-64
2024/01/15 01:06:15;;;;;;;;;;;;;;;19.90;38.77;98760.31;2062705;28;1694;-64
2024/01/15 01:07:16;;;;;;;;;;;;;;;19.91;38.75;98761.78;2060496;28;1702;-64
2024/01/15 01:08:18;;;;;;;;;;;;;;;19.91;38.81;98763.94;2057726;28;1706;-64
2024/01/15 01:09:19;;;;;;;;;;;;;;;19.91;38.74;98753.16;2062134;28;1723;-64
2024/01/15 01:10:20;;;;;;;;;;;;;;;19.90;38.58;98760.31;2061470;28;1877;-64
2024/01/15 01:11:22;;;;;;;;;;;;;;;19.90;38.73;98757.44;2060597;28;1912;-64
2024/01/15 01:12:23;;;;;;;;;;;;;;;19.90;38.62;98763.19;2063616;28;1619;-64
2024/01/15 01:13:25;;;;;;;;;;;;;;;19.90;38.69;98756.72;2063411;28;2042;-64
2024/01/15 01:14:26;;;;;;;;;;;;;;;19.90;38.73;98756.72;2062013;28;1631;-64
2024/01/15 01:15:27;;;;;;;;;;;;;;;19.90;38.79;98751.69;2062319;28;1767;-64
2024/01/15 01:16:30;;;;;;;;;;;;;;;19.90;38.98;98751.69;2061187;28;1643;-64
2024/01/15 01:17:32;;;;;;;;;;;;;;;19.91;38.83;98761.78;2066733;28;1639;-64
2024/01/15 01:18:34;;;;;;;;;;;;;;;19.91;38.94;98756.03;2059667;28;1679;-64
2024/01/15 01:19:36;;;;;;;;;;;;;;;19.92;39.01;98759.63;2063674;28;1623;-64
2024/01/15 01:20:37;;;;;;;;;;;;;;;19.91;39.00;98756.03;2061812;28;1931;-64
2024/01/15 01:21:39;;;;;;;;;;;;;;;19.91;39.02;98753.16;2060401;28;1622;-63
2024/01/15 01:22:40;;;;;;;;;;;;;;;19.92;38.95;98754.59;2061100;28;1744;-63
2024/01/15 01:23:42;;;;;;;;;;;;;;;19.93;39.09;98756.06;2063909;28;1686;-63
2024/01/15 01:24:43;;;;;;;;;;;;;;;19.93;38.99;98750.31;2062655;28;1918;-63
2024/01/15 01:25:45;;;;;;;;;;;;;;;19.92;38.99;98754.59;2061790;28;1639;-64
2024/01/15 01:26:46;;;;;;;;;;;;;;;19.93;38.98;98761.81;2061796;28;1579;-63
2024/01/15 01:27:48;;;;;;;;;;;;;;;19.94;38.99;98751.06;2060644;28;1781;-64
2024/01/15 01:28:50;;;;;;;;;;;;;;;19.94;39.06;98754.63;2059956;28;1773;-63
2024/01/15 01:29:51;;;;;;;;;;;;;;;19.94;38.97;98763.25;2052234;28;1833;-63
2024/01/15 01:30:53;;;;;;;;;;;;;;;19.95;38.91;98758.22;2050428;28;5984;-63
2024/01/15 01:31:56;;;;;;;;;;;;;;;19.93;38.95;98761.81;2060077;28;1646;-63
2024/01/15 01:32:57;;;;;;;;;;;;;;;19.93;39.07;98750.31;2061396;28;1627;-63
2024/01/15 01:33:59;;;;;;;;;;;;;;;19.93;39.12;98761.81;2062471;28;1921;-63
2024/01/15 01:35:00;;;;;;;;;;;;;;;19.94;38.98;98756.78;2058175;28;1622;-63
2024/01/15 01:36:06;;;;;;;;;;;;;;;19.93;39.04;98761.81;2062879;28;1658;-63
2024/01/15 01:37:08;;;;;;;;;;;;;;;19.93;39.01;98756.06;2060755;28;2031;-63
2024/01/15 01:38:09;;;;;;;;;;;;;;;19.94;38.94;98756.78;2060323;28;1610;-63
2024/01/15 01:39:11;;;;;;;;;;;;;;;19.93;39.02;98756.06;2063533;28;1646;-63
2024/01/15 01:40:12;;;;;;;;;;;;;;;19.93;38.97;98766.81;2059394;28;1639;-63
2024/01/15 01:41:15;;;;;;;;;;;;;;;19.93;39.06;98758.94;2060070;28;1846;-63
2024/01/15 01:42:16;;;;;;;;;;;;;;;19.92;38.95;98759.63;2060185;28;1837;-63
2024/01/15 01:43:18;;;;;;;;;;;;;;;19.92;39.00;98760.34;2058411;28;1663;-63
2024/01/15 01:44:19;;;;;;;;;;;;;;;19.92;38.91;98765.38;2058049;28;1571;-63
2024/01/15 01:45:20;;;;;;;;;;;;;;;19.91;39.05;98770.41;2057321;28;2034;-63
2024/01/15 01:46:22;;;;;;;;;;;;;;;19.92;38.89;98771.13;2061396;28;1634;-63
2024/01/15 01:47:26;;;;;;;;;;;;;;;19.92;38.92;98766.09;2060916;28;1845;-63
2024/01/15 01:48:27;;;;;;;;;;;;;;;19.91;38.92;98761.78;2061354;28;1654;-63
2024/01/15 01:49:29;;;;;;;;;;;;;;;19.91;38.89;98753.16;2061744;28;1944;-63
2024/01/15 01:50:31;;;;;;;;;;;;;;;19.91;38.90;98753.16;2062969;28;1545;-63
2024/01/15 01:51:33;;;;;;;;;;;;;;;19.91;38.78;98758.91;2060761;28;1885;-63
2024/01/15 01:52:34;;;;;;;;;;;;;;;19.91;38.79;98752.44;2059503;28;1584;-63
2024/01/15 01:53:36;;;;;;;;;;;;;;;19.91;38.68;98752.44;2060120;28;1791;-63
2024/01/15 01:54:37;;;;;;;;;;;;;;;19.91;38.67;98761.78;2063090;28;1809;-63
2024/01/15 01:55:39;;;;;;;;;;;;;;;19.91;38.88;98753.16;2053489;28;1823;-63
2024/01/15 01:56:41;;;;;;;;;;;;;;;19.91;38.75;98752.44;2056485;28;1651;-63
2024/01/15 01:57:42;;;;;;;;;;;;;;;19.92;38.90;98753.88;2059517;28;2314;-63
2024/01/15 01:58:44;;;;;;;;;;;;;;;19.91;39.01;98756.03;2060318;28;1651;-63
2024/01/15 01:59:45;;;;;;;;;;;;;;;19.92;38.98;98748.88;2058512;28;2088;-63
2024/01/15 02:00:47;;;;;;;;;;;;;;;19.92;39.18;98748.88;2056478;28;6427;-63
2024/01/15 02:01:48;;;;;;;;;;;;;;;19.92;39.01;98748.16;2059543;28;1852;-63
2024/01/15 02:02:50;;;;;;;;;;;;;;;19.92;39.20;98743.13;2059945;28;2370;-63
2024/01/15 02:03:51;;;;;;;;;;;;;;;19.93;39.08;98738.84;2058527;28;1571;-63
2024/01/15 02:04:52;;;;;;;;;;;;;;;19.92;39.13;98751.72;2060754;28;2195;-63
2024/01/15 02:05:54;;;;;;;;;;;;;;;19.93;39.12;98744.59;2059678;28;2224;-63
2024/01/15 02:06:55;;;;;;;;;;;;;;;19.93;39.18;98733.09;2057789;28;1532;-63
2024/01/15 02:07:57;;;;;;;;;;;;;;;19.93;39.06;98735.97;2061154;28;2337;-63
2024/01/15 02:08:58;;;;;;;;;;;;;;;19.95;38.98;98738.13;2059705;28;1626;-63
2024/01/15 02:10:00;;;;;;;;;;;;;;;19.95;39.08;98735.25;2058724;28;2498;-63
2024/01/15 02:11:01;;;;;;;;;;;;;;;19.94;39.10;98734.53;2059667;28;1790;-63
2024/01/15 02:12:02;;;;;;;;;;;;;;;19.94;39.19;98731.66;2060259;28;1559;-62
2024/01/15 02:13:04;;;;;;;;;;;;;;;19.94;39.04;98730.94;2061176;28;1625;-63
2024/01/15 02:14:06;;;;;;;;;;;;;;;19.93;39.16;98733.09;2061987;28;1536;-63
2024/01/15 02:15:07;;;;;;;;;;;;;;;19.95;39.13;98735.25;2053458;28;1954;-63
2024/01/15 02:16:09;;;;;;;;;;;;;;;19.95;39.18;98732.38;2056731;28;1633;-63
2024/01/15 02:17:10;;;;;;;;;;;;;;;19.94;39.17;98742.44;2061556;28;1520;-73
2024/01/15 02:18:11;;;;;;;;;;;;;;;19.94;39.08;98733.81;2060866;28;1856;-63
2024/01/15 02:19:18;;;;;;;;;;;;;;;19.94;39.12;98728.78;2059628;28;1777;-63
2024/01/15 02:20:20;;;;;;;;;;;;;;;19.94;39.18;98731.66;2062325;28;1555;-63
2024/01/15 02:21:21;;;;;;;;;;;;;;;19.94;39.10;98725.91;2060004;28;1604;-74
2024/01/15 02:22:23;;;;;;;;;;;;;;;19.94;39.04;98723.03;2060133;28;1794;-74
2024/01/15 02:23:24;;;;;;;;;;;;;;;19.94;38.99;98728.06;2060779;28;1509;-74
2024/01/15 02:24:26;;;;;;;;;;;;;;;19.93;39.00;98727.34;2060287;28;1583;-74
2024/01/15 02:25:27;;;;;;;;;;;;;;;19.92;39.05;98728.75;2062012;28;2152;-74
2024/01/15 02:26:28;;;;;;;;;;;;;;;19.92;39.11;98725.88;2059758;28;1864;-74
2024/01/15 02:27:30;;;;;;;;;;;;;;;19.93;39.03;98726.59;2059262;28;1718;-74
2024/01/15 02:28:32;;;;;;;;;;;;;;;19.92;39.15;98708.66;2060468;28;1848;-74
2024/01/15 02:29:33;;;;;;;;;;;;;;;19.92;39.08;98719.41;2056795;28;1797;-74
2024/01/15 02:30:37;;;;;;;;;;;;;;;19.91;39.00;98715.84;2053265;28;6248;-74
2024/01/15 02:31:39;;;;;;;;;;;;;;;19.92;38.93;98714.41;2045621;28;1748;-73
2024/01/15 02:32:41;;;;;;;;;;;;;;;19.92;38.94;98717.28;2049388;28;1854;-74
2024/01/15 02:33:42;;;;;;;;;;;;;;;19.91;39.06;98715.84;2064914;28;1591;-74
2024/01/15 02:34:44;;;;;;;;;;;;;;;19.91;39.00;98715.84;2062790;28;1699;-74
2024/01/15 02:35:52;;;;;;;;;;;;;;;19.92;39.02;98714.41;2060320;28;1873;-74
2024/01/15 02:36:53;;;;;;;;;;;;;;;19.91;38.91;98712.97;2061847;28;1885;-74
2024/01/15 02:37:55;;;;;;;;;;;;;;;19.91;39.07;98715.84;2059652;28;1626;-73
2024/01/15 02:38:56;;;;;;;;;;;;;;;19.91;39.10;98712.25;2060901;28;1691;-73
2024/01/15 02:39:57;;;;;;;;;;;;;;;19.91;39.03;98709.38;2060575;28;1684;-74
2024/01/15 02:40:59;;;;;;;;;;;;;;;19.91;39.11;98718.69;2060417;28;1885;-74
2024/01/15 02:42:00;;;;;;;;;;;;;;;19.92;39.32;98714.41;2061288;28;1956;-74
2024/01/15 02:43:02;;;;;;;;;;;;;;;19.92;39.11;98714.41;2057760;28;1735;-74
2024/01/15 02:44:03;;;;;;;;;;;;;;;19.92;39.15;98714.41;2060241;28;1656;-74
2024/01/15 02:45:04;;;;;;;;;;;;;;;19.92;39.16;98708.66;2060535;28;1962;-74
2024/01/15 02:46:06;;;;;;;;;;;;;;;19.91;39.10;98712.97;2061286;28;1662;-74
2024/01/15 02:47:07;;;;;;;;;;;;;;;19.91;39.07;98707.22;2054125;28;2516;-74
2024/01/15 02:48:09;;;;;;;;;;;;;;;19.92;39.08;98714.41;2052872;28;1769;-74
2024/01/15 02:49:10;;;;;;;;;;;;;;;19.92;39.17;98708.66;2061622;28;1599;-73
2024/01/15 02:50:12;;;;;;;;;;;;;;;19.93;39.06;98709.38;2059823;28;1829;-74
2024/01/15 02:51:13;;;;;;;;;;;;;;;19.93;39.20;98703.63;2058170;28;1850;-74
2024/01/15 02:52:15;;;;;;;;;;;;;;;19.93;39.22;98710.13;2058466;28;2028;-74
2024/01/15 02:53:16;;;;;;;;;;;;;;;19.94;39.20;98705.09;2061412;28;2081;-74
2024/01/15 02:54:17;;;;;;;;;;;;;;;19.93;39.22;98704.38;2057903;28;1616;-74
2024/01/15 02:55:19;;;;;;;;;;;;;;;19.94;39.09;98694.31;2058568;28;1865;-74
2024/01/15 02:56:20;;;;;;;;;;;;;;;19.93;39.24;98692.88;2059963;28;1803;-74
2024/01/15 02:57:21;;;;;;;;;;;;;;;19.94;39.17;98691.44;2055825;28;1619;-74
2024/01/15 02:58:23;;;;;;;;;;;;;;;19.93;39.20;98698.63;2066042;28;1715;-74
2024/01/15 02:59:24;;;;;;;;;;;;;;;19.93;39.16;98692.13;2059583;28;1857;-74
2024/01/15 03:00:26;;;;;;;;;;;;;;;19.93;39.25;98692.88;2057763;28;6031;-74
2024/01/15 03:01:27;;;;;;;;;;;;;;;19.94;39.12;98688.56;2062596;28;1935;-74
2024/01/15 03:02:31;;;;;;;;;;;;;;;19.94;39.25;98694.31;2061202;28;1718;-74
2024/01/15 03:03:33;;;;;;;;;;;;;;;19.92;39.14;98697.16;2058903;28;1690;-74
2024/01/15 03:04:35;;;;;;;;;;;;;;;19.93;39.11;98692.88;2061837;28;1928;-74
2024/01/15 03:05:36;;;;;;;;;;;;;;;19.92;39.17;98697.16;2061782;28;1989;-74
2024/01/15 03:06:37;;;;;;;;;;;;;;;19.93;39.07;98692.88;2064324;28;1630;-74
2024/01/15 03:07:39;;;;;;;;;;;;;;;19.92;39.15;98697.16;2059850;28;1732;-74
2024/01/15 03:08:40;;;;;;;;;;;;;;;19.92;39.32;98694.28;2058909;28;2010;-73
2024/01/15 03:09:42;;;;;;;;;;;;;;;19.93;39.18;98697.88;2060697;28;2119;-74
2024/01/15 03:10:43;;;;;;;;;;;;;;;19.91;39.14;98689.97;2059211;28;1886;-73
2024/01/15 03:11:45;;;;;;;;;;;;;;;19.92;39.15;98690.69;2057822;28;2231;-74
2024/01/15 03:12:46;;;;;;;;;;;;;;;19.92;39.00;98697.16;2059006;28;2161;-74
2024/01/15 03:13:47;;;;;;;;;;;;;;;19.92;38.94;98694.28;2057276;28;2203;-74
2024/01/15 03:14:49;;;;;;;;;;;;;;;19.91;39.08;98689.25;2059789;28;2131;-74
2024/01/15 03:15:50;;;;;;;;;;;;;;;19.90;39.05;98697.13;2057746;28;1774;-74
2024/01/15 03:16:52;;;;;;;;;;;;;;;19.90;39.01;98694.25;2056535;28;2064;-74
2024/01/15 03:17:53;;;;;;;;;;;;;;;19.91;39.11;98697.88;2061559;28;1659;-74
2024/01/15 03:18:55;;;;;;;;;;;;;;;19.90;39.14;98694.25;2062478;28;1745;-73
2024/01/15 03:19:56;;;;;;;;;;;;;;;19.91;39.06;98695.72;2059902;28;1673;-74
2024/01/15 03:20:58;;;;;;;;;;;;;;;19.91;39.07;98692.84;2063170;28;1770;-73
2024/01/15 03:22:00;;;;;;;;;;;;;;;19.91;39.11;98689.25;2059634;28;1861;-73
2024/01/15 03:23:02;;;;;;;;;;;;;;;19.90;39.07;98697.13;2063586;28;1595;-74
2024/01/15 03:24:03;;;;;;;;;;;;;;;19.91;39.12;98692.84;2061606;28;2029;-74
2024/01/15 03:25:05;;;;;;;;;;;;;;;19.90;39.19;98685.66;2058145;28;2045;-74
2024/01/15 03:26:07;;;;;;;;;;;;;;;19.92;39.20;98693.56;2062366;28;2025;-74
2024/01/15 03:27:08;;;;;;;;;;;;;;;19.91;38.99;98692.13;2064580;28;1753;-75
2024/01/15 03:28:10;;;;;;;;;;;;;;;19.91;39.19;98687.09;2060289;28;2147;-74
2024/01/15 03:29:11;;;;;;;;;;;;;;;19.92;39.21;98697.16;2062682;28;1725;-74
2024/01/15 03:30:13;;;;;;;;;;;;;;;19.92;39.29;98690.69;2060467;28;6146;-74
2024/01/15 03:31:14;;;;;;;;;;;;;;;19.92;39.15;98685.69;2058370;28;1627;-74
2024/01/15 03:32:16;;;;;;;;;;;;;;;19.92;39.26;98688.56;2065582;28;2313;-74
2024/01/15 03:33:18;;;;;;;;;;;;;;;19.93;39.12;98677.78;2059549;28;1889;-74
2024/01/15 03:34:19;;;;;;;;;;;;;;;19.93;39.15;98687.13;2058184;28;2191;-74
2024/01/15 03:35:21;;;;;;;;;;;;;;;19.93;39.17;98681.41;2061955;28;1646;-74
2024/01/15 03:36:23;;;;;;;;;;;;;;;19.95;39.39;98689.28;2061222;28;1900;-73
2024/01/15 03:37:24;;;;;;;;;;;;;;;19.95;39.16;98692.16;2066823;28;1690;-74
2024/01/15 03:38:27;;;;;;;;;;;;;;;19.95;39.18;98690.03;2060526;28;2517;-74
2024/01/15 03:39:29;;;;;;;;;;;;;;;19.96;39.26;98690.75;2060560;28;1707;-74
2024/01/15 03:40:30;;;;;;;;;;;;;;;19.94;39.26;98682.84;2063646;28;2034;-74
2024/01/15 03:41:32;;;;;;;;;;;;;;;19.94;39.19;98682.84;2061282;28;1694;-73
2024/01/15 03:42:33;;;;;;;;;;;;;;;19.94;39.23;98665.59;2065471;28;1884;-74
2024/01/15 03:43:35;;;;;;;;;;;;;;;19.96;39.30;98673.53;2060177;28;1942;-74
2024/01/15 03:44:36;;;;;;;;;;;;;;;19.96;39.27;98665.63;2061482;28;1794;-74
2024/01/15 03:45:37;;;;;;;;;;;;;;;19.97;39.23;98675.69;2062999;28;1782;-74
2024/01/15 03:46:39;;;;;;;;;;;;;;;19.97;39.26;98669.94;2060151;28;1993;-74
2024/01/15 03:47:40;;;;;;;;;;;;;;;19.97;39.33;98669.94;2062244;28;1707;-74
2024/01/15 03:48:42;;;;;;;;;;;;;;;19.99;39.29;98672.13;2063142;28;1647;-74
2024/01/15 03:49:43;;;;;;;;;;;;;;;19.99;39.36;98661.34;2058180;28;1755;-74
2024/01/15 03:50:45;;;;;;;;;;;;;;;19.99;39.36;98660.63;2063016;28;2532;-73
2024/01/15 03:51:46;;;;;;;;;;;;;;;19.98;39.20;98662.78;2062299;28;1853;-74
2024/01/15 03:52:48;;;;;;;;;;;;;;;20.00;39.44;98674.31;2060029;28;1628;-74
2024/01/15 03:53:49;;;;;;;;;;;;;;;20.00;39.33;98662.81;2060920;28;2192;-73
2024/01/15 03:54:51;;;;;;;;;;;;;;;20.02;39.36;98659.22;2060606;28;1962;-74
2024/01/15 03:55:52;;;;;;;;;;;;;;;20.01;39.31;98654.91;2060028;28;2154;-73
2024/01/15 03:56:54;;;;;;;;;;;;;;;20.01;39.22;98655.63;2059726;28;2069;-73
2024/01/15 03:57:55;;;;;;;;;;;;;;;20.02;39.30;98665.72;2060298;28;1694;-74
2024/01/15 03:58:57;;;;;;;;;;;;;;;20.02;39.28;98668.59;2060911;28;1798;-74
2024/01/15 03:59:58;;;;;;;;;;;;;;;20.03;39.35;98669.31;2058785;28;1603;-74
2024/01/15 04:00:59;;;;;;;;;;;;;;;20.03;39.30;98661.41;2061771;28;5913;-74
2024/01/15 04:02:01;;;;;;;;;;;;;;;20.02;39.51;98659.97;2062889;28;1671;-74
2024/01/15 04:03:02;;;;;;;;;;;;;;;20.05;39.46;98663.59;2058211;28;2263;-74
2024/01/15 04:04:04;;;;;;;;;;;;;;;20.04;39.31;98659.25;2061383;28;1682;-75
2024/01/15 04:05:05;;;;;;;;;;;;;;;20.03;39.49;98658.53;2058494;28;1813;-74
2024/01/15 04:06:07;;;;;;;;;;;;;;;20.02;39.38;98651.34;2063923;28;1910;-74
2024/01/15 04:07:11;;;;;;;;;;;;;;;20.02;39.40;98654.22;2058260;28;1634;-74
2024/01/15 04:08:12;;;;;;;;;;;;;;;20.02;39.48;98654.22;2061113;28;1678;-74
2024/01/15 04:09:14;;;;;;;;;;;;;;;20.02;39.36;98651.34;2064361;28;1659;-74
2024/01/15 04:10:16;;;;;;;;;;;;;;;20.02;39.58;98653.47;2061605;28;1598;-75
2024/01/15 04:11:17;;;;;;;;;;;;;;;20.02;39.45;98647.72;2059660;28;2112;-74
2024/01/15 04:12:18;;;;;;;;;;;;;;;20.01;39.65;98652.75;2059966;28;1694;-74
2024/01/15 04:13:20;;;;;;;;;;;;;;;20.00;39.51;98636.97;2062610;28;1651;-74
2024/01/15 04:14:21;;;;;;;;;;;;;;;20.01;39.63;98647.03;2062876;28;1957;-74
2024/01/15 04:15:23;;;;;;;;;;;;;;;19.99;39.53;98635.50;2061127;28;1592;-74
2024/01/15 04:16:24;;;;;;;;;;;;;;;20.00;39.48;98651.31;2063380;28;1623;-74
2024/01/15 04:17:26;;;;;;;;;;;;;;;20.01;39.61;98649.88;2060571;28;2377;-74
2024/01/15 04:18:28;;;;;;;;;;;;;;;20.01;39.60;98641.28;2058779;28;1880;-74
2024/01/15 04:19:29;;;;;;;;;;;;;;;20.01;39.64;98649.88;2061271;28;2314;-73
2024/01/15 04:20:31;;;;;;;;;;;;;;;20.01;39.63;98647.03;2059127;28;1603;-74
2024/01/15 04:21:32;;;;;;;;;;;;;;;20.02;39.63;98654.22;2061279;28;1651;-74
2024/01/15 04:22:34;;;;;;;;;;;;;;;20.02;39.50;98642.72;2058024;28;1654;-74
2024/01/15 04:23:36;;;;;;;;;;;;;;;20.03;39.59;98652.06;2059058;28;1623;-74
2024/01/15 04:24:37;;;;;;;;;;;;;;;20.02;39.59;98645.59;2060919;28;1612;-74
2024/01/15 04:25:42;;;;;;;;;;;;;;;20.03;39.56;98654.94;2059877;28;2154;-74
2024/01/15 04:26:43;;;;;;;;;;;;;;;20.02;39.61;98648.47;2061238;28;2196;-74
2024/01/15 04:27:45;;;;;;;;;;;;;;;20.03;39.69;98652.78;2063196;28;2172;-73
2024/01/15 04:28:46;;;;;;;;;;;;;;;20.06;39.69;98645.63;2062389;28;1877;-72
2024/01/15 04:29:48;;;;;;;;;;;;;;;20.09;39.66;98647.13;2058879;28;2215;-73
2024/01/15 04:30:49;;;;;;;;;;;;;;;20.16;40.22;98650.06;2061425;28;5970;-74
2024/01/15 04:31:51;;;;;;;;;;;;;;;20.21;39.81;98651.56;2062872;28;1857;-74
2024/01/15 04:32:53;;;;;;;;;;;;;;;20.05;39.99;98641.31;2061906;28;1729;-74
2024/01/15 04:38:28;;;;;;;;;;;;;;;20.04;39.60;98645.63;2060876;28;1590;-75
2024/01/15 04:39:30;;;;;;;;;;;;;;;20.05;39.72;98643.47;2054656;28;1757;-74
2024/01/15 04:40:32;;;;;;;;;;;;;;;20.07;39.63;98646.38;2054808;28;1785;-75
2024/01/15 04:41:33;;;;;;;;;;;;;;;20.07;39.60;98649.97;2054885;28;1705;-74
2024/01/15 04:42:35;;;;;;;;;;;;;;;20.08;39.52;98642.06;2061146;28;1922;-74
2024/01/15 04:43:36;;;;;;;;;;;;;;;20.09;39.60;98632.75;2062971;28;1728;-75
2024/01/15 04:44:38;;;;;;;;;;;;;;;20.09;39.72;98627.03;2062538;28;1676;-72
2024/01/15 04:45:39;;;;;;;;;;;;;;;20.11;39.75;98637.06;2061838;28;1926;-75
2024/01/15 04:46:40;;;;;;;;;;;;;;;20.10;39.60;98636.34;2058399;28;2019;-75
2024/01/15 04:47:42;;;;;;;;;;;;;;;20.11;39.70;98620.56;2062928;28;1768;-75
2024/01/15 04:48:43;;;;;;;;;;;;;;;20.11;39.63;98626.31;2058870;28;1880;-74
2024/01/15 04:49:45;;;;;;;;;;;;;;;20.12;39.82;98633.50;2059639;28;1883;-74
2024/01/15 04:50:47;;;;;;;;;;;;;;;20.13;39.66;98625.59;2059915;28;1771;-74
2024/01/15 04:51:48;;;;;;;;;;;;;;;20.14;39.78;98629.94;2061092;28;1919;-74
2024/01/15 04:52:50;;;;;;;;;;;;;;;20.14;39.77;98624.19;2055949;28;1815;-74
2024/01/15 04:53:51;;;;;;;;;;;;;;;20.15;39.91;98628.50;2059109;28;1648;-74
2024/01/15 04:54:52;;;;;;;;;;;;;;;20.14;39.73;98627.06;2060900;28;1767;-74
2024/01/15 04:55:54;;;;;;;;;;;;;;;20.14;39.72;98629.94;2060279;28;2014;-74
2024/01/15 04:56:55;;;;;;;;;;;;;;;20.14;39.85;98629.94;2060889;28;1601;-74
2024/01/15 04:57:57;;;;;;;;;;;;;;;20.13;39.89;98626.31;2060432;28;1874;-74
2024/01/15 04:58:58;;;;;;;;;;;;;;;20.15;39.92;98625.63;2059891;28;1735;-74
2024/01/15 04:59:59;;;;;;;;;;;;;;;20.14;39.84;98632.81;2061069;28;1906;-74
2024/01/15 05:01:01;;;;;;;;;;;;;;;20.14;39.96;98629.94;2059615;28;6043;-74
2024/01/15 05:02:02;;;;;;;;;;;;;;;20.14;39.95;98613.44;2061808;28;1728;-74
2024/01/15 05:03:04;;;;;;;;;;;;;;;20.13;39.90;98622.72;2061990;28;1760;-74
2024/01/15 05:04:05;;;;;;;;;;;;;;;20.12;39.97;98622.03;2061235;28;1544;-74
2024/01/15 05:05:07;;;;;;;;;;;;;;;20.13;39.88;98625.59;2062020;28;2040;-74
2024/01/15 05:06:08;;;;;;;;;;;;;;;20.13;39.97;98628.47;2061041;28;2024;-74
2024/01/15 05:07:10;;;;;;;;;;;;;;;20.12;40.02;98612.69;2059123;28;1985;-75
2024/01/15 05:08:11;;;;;;;;;;;;;;;20.12;39.92;98627.75;2057393;28;1738;-74
2024/01/15 05:09:13;;;;;;;;;;;;;;;20.12;39.92;98621.31;2060906;28;1898;-75
2024/01/15 05:10:14;;;;;;;;;;;;;;;20.12;39.94;98627.03;2059360;28;1890;-75
2024/01/15 05:11:16;;;;;;;;;;;;;;;20.12;39.87;98610.53;2060830;28;1692;-74
2024/01/15 05:12:17;;;;;;;;;;;;;;;20.12;40.05;98627.03;2059773;28;1704;-76
2024/01/15 05:13:19;;;;;;;;;;;;;;;20.12;40.12;98610.53;2058800;28;1825;-74
2024/01/15 05:14:20;;;;;;;;;;;;;;;20.12;40.01;98610.53;2059985;28;2405;-75
2024/01/15 05:15:21;;;;;;;;;;;;;;;20.13;40.01;98611.25;2060557;28;1702;-74
2024/01/15 05:16:23;;;;;;;;;;;;;;;20.12;40.04;98627.75;2060352;28;1640;-74
2024/01/15 05:17:24;;;;;;;;;;;;;;;20.13;40.17;98622.72;2059126;28;1704;-75
2024/01/15 05:18:26;;;;;;;;;;;;;;;20.13;39.94;98622.72;2059628;28;1914;-75
2024/01/15 05:19:27;;;;;;;;;;;;;;;20.13;40.03;98622.72;2061292;28;1961;-74
2024/01/15 05:20:29;;;;;;;;;;;;;;;20.13;40.14;98617.00;2058926;28;1676;-75
2024/01/15 05:21:31;;;;;;;;;;;;;;;20.12;40.13;98621.31;2060809;28;1747;-75
2024/01/15 05:22:32;;;;;;;;;;;;;;;20.12;40.20;98615.56;2058990;28;1673;-74
2024/01/15 05:23:34;;;;;;;;;;;;;;;20.12;40.15;98615.56;2062059;28;1679;-75
2024/01/15 05:24:35;;;;;;;;;;;;;;;20.12;40.16;98622.03;2060617;28;1726;-74
2024/01/15 05:25:36;;;;;;;;;;;;;;;20.12;40.10;98629.91;2062927;28;1706;-74
2024/01/15 05:26:38;;;;;;;;;;;;;;;20.12;40.07;98621.31;2060698;28;1936;-74
2024/01/15 05:27:39;;;;;;;;;;;;;;;20.11;40.15;98623.44;2058800;28;1599;-74
2024/01/15 05:28:41;;;;;;;;;;;;;;;20.10;39.89;98604.75;2058703;28;1511;-75
2024/01/15 05:29:42;;;;;;;;;;;;;;;20.09;40.18;98615.53;2057799;28;3238;-74